sensor_id;sensor_type;location;lat;lon;timestamp;P1;durP1;ratioP1;P2;durP2;ratioP2
4084;SDS011;2057;50.858;6.572;2024-01-30T00:00:01;15.77;;;10.17;;
4084;SDS011;2057;50.858;6.572;2024-01-30T00:02:26;18.90;;;12.00;;
4084;SDS011;2057;50.858;6.572;2024-01-30T00:04:51;17.37;;;11.07;;
4084;SDS011;2057;50.858;6.572;2024-01-30T00:07:17;16.53;;;11.27;;
4084;SDS011;2057;50.858;6.572;2024-01-30T00:09:46;22.17;;;11.77;;
4084;SDS011;2057;50.858;6.572;2024-01-30T00:12:14;21.57;;;12.03;;
4084;SDS011;2057;50.858;6.572;2024-01-30T00:14:47;23.53;;;11.90;;
4084;SDS011;2057;50.858;6.572;2024-01-30T00:17:13;22.20;;;12.03;;
4084;SDS011;2057;50.858;6.572;2024-01-30T00:19:38;14.77;;;10.03;;
4084;SDS011;2057;50.858;6.572;2024-01-30T00:22:04;15.03;;;10.50;;
4084;SDS011;2057;50.858;6.572;2024-01-30T00:24:32;17.70;;;10.27;;
4084;SDS011;2057;50.858;6.572;2024-01-30T00:26:57;19.63;;;10.70;;
4084;SDS011;2057;50.858;6.572;2024-01-30T00:29:25;14.70;;;8.77;;
4084;SDS011;2057;50.858;6.572;2024-01-30T00:31:55;17.67;;;10.23;;
4084;SDS011;2057;50.858;6.572;2024-01-30T00:34:23;14.60;;;10.83;;
4084;SDS011;2057;50.858;6.572;2024-01-30T00:36:48;17.93;;;10.53;;
4084;SDS011;2057;50.858;6.572;2024-01-30T00:39:13;23.13;;;10.50;;
4084;SDS011;2057;50.858;6.572;2024-01-30T00:41:40;12.40;;;9.10;;
4084;SDS011;2057;50.858;6.572;2024-01-30T00:44:06;20.80;;;10.87;;
4084;SDS011;2057;50.858;6.572;2024-01-30T00:46:33;14.50;;;10.40;;
4084;SDS011;2057;50.858;6.572;2024-01-30T00:48:59;20.47;;;8.97;;
4084;SDS011;2057;50.858;6.572;2024-01-30T00:51:24;16.60;;;10.77;;
4084;SDS011;2057;50.858;6.572;2024-01-30T00:53:49;13.70;;;9.77;;
4084;SDS011;2057;50.858;6.572;2024-01-30T00:56:15;18.80;;;10.67;;
4084;SDS011;2057;50.858;6.572;2024-01-30T00:58:43;20.33;;;10.27;;
4084;SDS011;2057;50.858;6.572;2024-01-30T01:01:11;19.13;;;10.73;;
4084;SDS011;2057;50.858;6.572;2024-01-30T01:03:39;17.03;;;11.60;;
4084;SDS011;2057;50.858;6.572;2024-01-30T01:06:09;15.53;;;10.00;;
4084;SDS011;2057;50.858;6.572;2024-01-30T01:08:34;14.20;;;10.60;;
4084;SDS011;2057;50.858;6.572;2024-01-30T01:10:59;21.03;;;10.30;;
4084;SDS011;2057;50.858;6.572;2024-01-30T01:13:25;16.90;;;11.77;;
4084;SDS011;2057;50.858;6.572;2024-01-30T01:15:50;14.07;;;10.17;;
4084;SDS011;2057;50.858;6.572;2024-01-30T01:18:15;18.20;;;10.90;;
4084;SDS011;2057;50.858;6.572;2024-01-30T01:20:43;17.10;;;11.17;;
4084;SDS011;2057;50.858;6.572;2024-01-30T01:23:11;21.90;;;11.80;;
4084;SDS011;2057;50.858;6.572;2024-01-30T01:25:37;23.13;;;10.00;;
4084;SDS011;2057;50.858;6.572;2024-01-30T01:28:02;22.33;;;11.50;;
4084;SDS011;2057;50.858;6.572;2024-01-30T01:30:28;19.43;;;10.97;;
4084;SDS011;2057;50.858;6.572;2024-01-30T01:32:54;19.13;;;9.70;;
4084;SDS011;2057;50.858;6.572;2024-01-30T01:35:26;19.50;;;10.00;;
4084;SDS011;2057;50.858;6.572;2024-01-30T01:37:52;14.43;;;10.57;;
4084;SDS011;2057;50.858;6.572;2024-01-30T01:40:26;21.00;;;11.40;;
4084;SDS011;2057;50.858;6.572;2024-01-30T01:42:52;22.40;;;10.23;;
4084;SDS011;2057;50.858;6.572;2024-01-30T01:45:19;19.57;;;9.67;;
4084;SDS011;2057;50.858;6.572;2024-01-30T01:47:46;16.80;;;10.43;;
4084;SDS011;2057;50.858;6.572;2024-01-30T01:50:15;16.23;;;10.20;;
4084;SDS011;2057;50.858;6.572;2024-01-30T01:52:44;15.60;;;9.77;;
4084;SDS011;2057;50.858;6.572;2024-01-30T01:55:14;14.80;;;10.13;;
4084;SDS011;2057;50.858;6.572;2024-01-30T01:57:41;13.70;;;9.70;;
4084;SDS011;2057;50.858;6.572;2024-01-30T02:02:45;14.43;;;10.20;;
4084;SDS011;2057;50.858;6.572;2024-01-30T02:05:11;21.90;;;11.50;;
4084;SDS011;2057;50.858;6.572;2024-01-30T02:07:36;12.07;;;8.63;;
4084;SDS011;2057;50.858;6.572;2024-01-30T02:10:07;16.33;;;9.67;;
4084;SDS011;2057;50.858;6.572;2024-01-30T02:12:34;13.50;;;10.17;;
4084;SDS011;2057;50.858;6.572;2024-01-30T02:15:02;10.47;;;8.60;;
4084;SDS011;2057;50.858;6.572;2024-01-30T02:17:29;27.30;;;9.60;;
4084;SDS011;2057;50.858;6.572;2024-01-30T02:19:55;17.33;;;9.13;;
4084;SDS011;2057;50.858;6.572;2024-01-30T02:22:22;14.30;;;9.00;;
4084;SDS011;2057;50.858;6.572;2024-01-30T02:24:49;14.90;;;9.97;;
4084;SDS011;2057;50.858;6.572;2024-01-30T02:27:14;13.53;;;8.93;;
4084;SDS011;2057;50.858;6.572;2024-01-30T02:29:40;14.90;;;10.20;;
4084;SDS011;2057;50.858;6.572;2024-01-30T02:32:05;19.13;;;9.17;;
4084;SDS011;2057;50.858;6.572;2024-01-30T02:34:31;14.30;;;9.23;;
4084;SDS011;2057;50.858;6.572;2024-01-30T02:36:57;13.77;;;8.67;;
4084;SDS011;2057;50.858;6.572;2024-01-30T02:39:28;12.97;;;8.00;;
4084;SDS011;2057;50.858;6.572;2024-01-30T02:41:55;20.43;;;8.67;;
4084;SDS011;2057;50.858;6.572;2024-01-30T02:44:20;21.53;;;8.87;;
4084;SDS011;2057;50.858;6.572;2024-01-30T02:46:46;12.00;;;9.00;;
4084;SDS011;2057;50.858;6.572;2024-01-30T02:49:11;16.40;;;9.10;;
4084;SDS011;2057;50.858;6.572;2024-01-30T02:51:36;19.10;;;9.40;;
4084;SDS011;2057;50.858;6.572;2024-01-30T02:54:04;17.50;;;9.40;;
4084;SDS011;2057;50.858;6.572;2024-01-30T02:56:29;14.80;;;9.50;;
4084;SDS011;2057;50.858;6.572;2024-01-30T02:58:56;16.00;;;9.20;;
4084;SDS011;2057;50.858;6.572;2024-01-30T03:01:26;18.23;;;9.30;;
4084;SDS011;2057;50.858;6.572;2024-01-30T03:03:54;26.07;;;8.90;;
4084;SDS011;2057;50.858;6.572;2024-01-30T03:06:19;15.57;;;8.80;;
4084;SDS011;2057;50.858;6.572;2024-01-30T03:08:45;19.80;;;9.70;;
4084;SDS011;2057;50.858;6.572;2024-01-30T03:13:48;16.20;;;8.53;;
4084;SDS011;2057;50.858;6.572;2024-01-30T04:23:31;16.20;;;8.70;;
4084;SDS011;2057;50.858;6.572;2024-01-30T04:25:56;15.93;;;9.37;;
4084;SDS011;2057;50.858;6.572;2024-01-30T04:28:21;10.10;;;7.97;;
4084;SDS011;2057;50.858;6.572;2024-01-30T04:30:47;25.13;;;8.77;;
4084;SDS011;2057;50.858;6.572;2024-01-30T04:33:12;20.43;;;8.50;;
4084;SDS011;2057;50.858;6.572;2024-01-30T04:35:37;16.40;;;8.90;;
4084;SDS011;2057;50.858;6.572;2024-01-30T04:38:05;32.73;;;8.33;;
4084;SDS011;2057;50.858;6.572;2024-01-30T04:40:30;18.90;;;9.50;;
4084;SDS011;2057;50.858;6.572;2024-01-30T04:42:58;17.67;;;8.50;;
4084;SDS011;2057;50.858;6.572;2024-01-30T04:45:23;20.57;;;9.57;;
4084;SDS011;2057;50.858;6.572;2024-01-30T04:47:51;11.73;;;8.30;;
4084;SDS011;2057;50.858;6.572;2024-01-30T04:50:16;12.90;;;9.03;;
4084;SDS011;2057;50.858;6.572;2024-01-30T04:52:42;20.67;;;9.73;;
4084;SDS011;2057;50.858;6.572;2024-01-30T04:55:07;23.80;;;8.07;;
4084;SDS011;2057;50.858;6.572;2024-01-30T04:57:36;15.07;;;8.73;;
4084;SDS011;2057;50.858;6.572;2024-01-30T05:00:03;16.40;;;9.30;;
4084;SDS011;2057;50.858;6.572;2024-01-30T05:02:38;12.63;;;8.80;;
4084;SDS011;2057;50.858;6.572;2024-01-30T05:05:03;24.50;;;8.60;;
4084;SDS011;2057;50.858;6.572;2024-01-30T05:07:31;11.77;;;8.17;;
4084;SDS011;2057;50.858;6.572;2024-01-30T05:09:56;15.00;;;8.30;;
4084;SDS011;2057;50.858;6.572;2024-01-30T05:12:21;12.30;;;8.20;;
4084;SDS011;2057;50.858;6.572;2024-01-30T05:14:47;15.13;;;7.97;;
4084;SDS011;2057;50.858;6.572;2024-01-30T05:17:12;9.33;;;7.20;;
4084;SDS011;2057;50.858;6.572;2024-01-30T05:19:38;23.23;;;8.57;;
4084;SDS011;2057;50.858;6.572;2024-01-30T05:22:03;16.07;;;8.70;;
4084;SDS011;2057;50.858;6.572;2024-01-30T05:24:29;14.93;;;7.80;;
4084;SDS011;2057;50.858;6.572;2024-01-30T05:26:57;22.10;;;8.27;;
4084;SDS011;2057;50.858;6.572;2024-01-30T05:29:27;12.33;;;7.93;;
4084;SDS011;2057;50.858;6.572;2024-01-30T05:31:52;25.17;;;7.77;;
4084;SDS011;2057;50.858;6.572;2024-01-30T05:34:18;15.33;;;7.20;;
4084;SDS011;2057;50.858;6.572;2024-01-30T05:36:43;8.43;;;6.60;;
4084;SDS011;2057;50.858;6.572;2024-01-30T05:39:10;12.17;;;7.47;;
4084;SDS011;2057;50.858;6.572;2024-01-30T05:41:36;8.93;;;7.43;;
4084;SDS011;2057;50.858;6.572;2024-01-30T05:44:01;14.23;;;7.77;;
4084;SDS011;2057;50.858;6.572;2024-01-30T05:46:26;14.37;;;7.63;;
4084;SDS011;2057;50.858;6.572;2024-01-30T05:48:54;11.13;;;8.37;;
4084;SDS011;2057;50.858;6.572;2024-01-30T05:51:23;12.20;;;7.47;;
4084;SDS011;2057;50.858;6.572;2024-01-30T05:53:50;17.17;;;7.30;;
4084;SDS011;2057;50.858;6.572;2024-01-30T05:56:15;25.50;;;7.90;;
4084;SDS011;2057;50.858;6.572;2024-01-30T05:58:41;15.53;;;6.60;;
4084;SDS011;2057;50.858;6.572;2024-01-30T06:01:08;22.02;;;8.77;;
4084;SDS011;2057;50.858;6.572;2024-01-30T06:03:41;12.00;;;7.23;;
4084;SDS011;2057;50.858;6.572;2024-01-30T06:06:08;16.53;;;8.77;;
4084;SDS011;2057;50.858;6.572;2024-01-30T06:08:33;17.73;;;7.93;;
4084;SDS011;2057;50.858;6.572;2024-01-30T06:10:59;11.03;;;8.20;;
4084;SDS011;2057;50.858;6.572;2024-01-30T06:13:26;10.90;;;7.63;;
4084;SDS011;2057;50.858;6.572;2024-01-30T06:15:56;14.70;;;8.20;;
4084;SDS011;2057;50.858;6.572;2024-01-30T06:18:22;17.73;;;8.37;;
4084;SDS011;2057;50.858;6.572;2024-01-30T06:20:47;16.33;;;8.47;;
4084;SDS011;2057;50.858;6.572;2024-01-30T06:23:12;14.67;;;8.10;;
4084;SDS011;2057;50.858;6.572;2024-01-30T06:25:40;14.02;;;8.57;;
4084;SDS011;2057;50.858;6.572;2024-01-30T06:28:05;16.40;;;8.25;;
4084;SDS011;2057;50.858;6.572;2024-01-30T06:30:31;13.13;;;9.50;;
4084;SDS011;2057;50.858;6.572;2024-01-30T06:33:01;13.68;;;9.15;;
4084;SDS011;2057;50.858;6.572;2024-01-30T06:35:26;14.55;;;8.70;;
4084;SDS011;2057;50.858;6.572;2024-01-30T06:37:53;17.67;;;7.83;;
4084;SDS011;2057;50.858;6.572;2024-01-30T06:40:21;17.57;;;8.03;;
4084;SDS011;2057;50.858;6.572;2024-01-30T06:42:49;19.48;;;9.57;;
4084;SDS011;2057;50.858;6.572;2024-01-30T06:45:17;14.57;;;8.97;;
4084;SDS011;2057;50.858;6.572;2024-01-30T06:47:42;15.07;;;10.17;;
4084;SDS011;2057;50.858;6.572;2024-01-30T06:50:10;20.90;;;9.03;;
4084;SDS011;2057;50.858;6.572;2024-01-30T06:52:38;24.13;;;9.60;;
4084;SDS011;2057;50.858;6.572;2024-01-30T06:55:03;15.93;;;8.17;;
4084;SDS011;2057;50.858;6.572;2024-01-30T06:57:29;15.03;;;8.70;;
4084;SDS011;2057;50.858;6.572;2024-01-30T06:59:55;12.30;;;9.70;;
4084;SDS011;2057;50.858;6.572;2024-01-30T07:02:23;18.07;;;8.80;;
4084;SDS011;2057;50.858;6.572;2024-01-30T07:04:51;14.90;;;8.80;;
4084;SDS011;2057;50.858;6.572;2024-01-30T07:07:19;16.57;;;8.20;;
4084;SDS011;2057;50.858;6.572;2024-01-30T07:09:44;11.60;;;8.30;;
4084;SDS011;2057;50.858;6.572;2024-01-30T07:12:13;13.30;;;9.87;;
4084;SDS011;2057;50.858;6.572;2024-01-30T07:14:41;14.00;;;9.60;;
4084;SDS011;2057;50.858;6.572;2024-01-30T07:17:09;14.80;;;8.90;;
4084;SDS011;2057;50.858;6.572;2024-01-30T07:19:36;17.47;;;9.87;;
4084;SDS011;2057;50.858;6.572;2024-01-30T07:22:02;14.57;;;10.30;;
4084;SDS011;2057;50.858;6.572;2024-01-30T07:24:36;17.03;;;8.20;;
4084;SDS011;2057;50.858;6.572;2024-01-30T07:27:09;15.17;;;8.70;;
4084;SDS011;2057;50.858;6.572;2024-01-30T07:29:37;16.05;;;9.50;;
4084;SDS011;2057;50.858;6.572;2024-01-30T07:32:04;16.10;;;9.60;;
4084;SDS011;2057;50.858;6.572;2024-01-30T07:34:32;22.13;;;9.83;;
4084;SDS011;2057;50.858;6.572;2024-01-30T07:36:57;14.53;;;7.27;;
4084;SDS011;2057;50.858;6.572;2024-01-30T07:39:23;15.53;;;9.83;;
4084;SDS011;2057;50.858;6.572;2024-01-30T07:41:48;19.10;;;10.50;;
4084;SDS011;2057;50.858;6.572;2024-01-30T07:44:18;14.60;;;8.70;;
4084;SDS011;2057;50.858;6.572;2024-01-30T07:46:43;17.53;;;8.47;;
4084;SDS011;2057;50.858;6.572;2024-01-30T07:49:11;12.77;;;8.37;;
4084;SDS011;2057;50.858;6.572;2024-01-30T07:51:36;14.93;;;8.67;;
4084;SDS011;2057;50.858;6.572;2024-01-30T07:54:02;16.43;;;8.83;;
4084;SDS011;2057;50.858;6.572;2024-01-30T08:03:10;19.53;;;9.47;;
4084;SDS011;2057;50.858;6.572;2024-01-30T08:05:36;17.40;;;9.13;;
4084;SDS011;2057;50.858;6.572;2024-01-30T08:08:01;27.87;;;10.13;;
4084;SDS011;2057;50.858;6.572;2024-01-30T08:10:27;12.70;;;8.40;;
4084;SDS011;2057;50.858;6.572;2024-01-30T08:12:52;14.87;;;9.10;;
4084;SDS011;2057;50.858;6.572;2024-01-30T08:15:17;17.37;;;8.20;;
4084;SDS011;2057;50.858;6.572;2024-01-30T08:17:43;18.57;;;10.33;;
4084;SDS011;2057;50.858;6.572;2024-01-30T08:20:09;11.30;;;8.43;;
4084;SDS011;2057;50.858;6.572;2024-01-30T08:22:38;16.00;;;8.67;;
4084;SDS011;2057;50.858;6.572;2024-01-30T08:25:06;14.23;;;9.03;;
4084;SDS011;2057;50.858;6.572;2024-01-30T08:27:32;22.20;;;8.67;;
4084;SDS011;2057;50.858;6.572;2024-01-30T08:30:03;17.63;;;8.90;;
4084;SDS011;2057;50.858;6.572;2024-01-30T08:32:29;15.53;;;8.63;;
4084;SDS011;2057;50.858;6.572;2024-01-30T08:34:55;13.47;;;8.90;;
4084;SDS011;2057;50.858;6.572;2024-01-30T08:37:20;16.33;;;9.57;;
4084;SDS011;2057;50.858;6.572;2024-01-30T08:39:45;12.40;;;8.07;;
4084;SDS011;2057;50.858;6.572;2024-01-30T08:42:11;13.97;;;9.13;;
4084;SDS011;2057;50.858;6.572;2024-01-30T08:44:36;18.23;;;8.50;;
4084;SDS011;2057;50.858;6.572;2024-01-30T08:47:01;23.53;;;9.90;;
4084;SDS011;2057;50.858;6.572;2024-01-30T08:49:29;13.90;;;9.00;;
4084;SDS011;2057;50.858;6.572;2024-01-30T08:51:55;14.53;;;9.40;;
4084;SDS011;2057;50.858;6.572;2024-01-30T08:54:20;19.03;;;9.50;;
4084;SDS011;2057;50.858;6.572;2024-01-30T08:56:48;11.30;;;8.23;;
4084;SDS011;2057;50.858;6.572;2024-01-30T08:59:23;20.43;;;10.27;;
4084;SDS011;2057;50.858;6.572;2024-01-30T09:04:24;15.13;;;8.27;;
4084;SDS011;2057;50.858;6.572;2024-01-30T09:09:24;10.70;;;8.63;;
4084;SDS011;2057;50.858;6.572;2024-01-30T09:17:02;14.20;;;9.00;;
4084;SDS011;2057;50.858;6.572;2024-01-30T09:24:38;12.93;;;8.77;;
4084;SDS011;2057;50.858;6.572;2024-01-30T09:27:07;16.67;;;9.20;;
4084;SDS011;2057;50.858;6.572;2024-01-30T09:29:33;12.90;;;9.20;;
4084;SDS011;2057;50.858;6.572;2024-01-30T09:32:01;12.57;;;8.43;;
4084;SDS011;2057;50.858;6.572;2024-01-30T09:34:26;14.30;;;8.53;;
4084;SDS011;2057;50.858;6.572;2024-01-30T09:36:54;12.80;;;8.00;;
4084;SDS011;2057;50.858;6.572;2024-01-30T09:47:05;17.97;;;9.23;;
4084;SDS011;2057;50.858;6.572;2024-01-30T09:49:31;19.63;;;9.90;;
4084;SDS011;2057;50.858;6.572;2024-01-30T09:59:45;18.70;;;9.10;;
4084;SDS011;2057;50.858;6.572;2024-01-30T10:02:13;13.53;;;8.47;;
4084;SDS011;2057;50.858;6.572;2024-01-30T10:07:14;16.07;;;10.00;;
4084;SDS011;2057;50.858;6.572;2024-01-30T11:22:06;18.57;;;10.27;;
4084;SDS011;2057;50.858;6.572;2024-01-30T11:24:36;17.97;;;10.00;;
4084;SDS011;2057;50.858;6.572;2024-01-30T11:27:09;22.10;;;11.20;;
4084;SDS011;2057;50.858;6.572;2024-01-30T11:29:37;23.43;;;11.70;;
4084;SDS011;2057;50.858;6.572;2024-01-30T11:32:10;25.60;;;9.27;;
4084;SDS011;2057;50.858;6.572;2024-01-30T11:34:40;20.23;;;11.00;;
4084;SDS011;2057;50.858;6.572;2024-01-30T11:37:09;22.07;;;9.93;;
4084;SDS011;2057;50.858;6.572;2024-01-30T11:39:36;30.47;;;10.50;;
4084;SDS011;2057;50.858;6.572;2024-01-30T11:42:02;37.77;;;10.43;;
4084;SDS011;2057;50.858;6.572;2024-01-30T11:44:32;14.57;;;8.50;;
4084;SDS011;2057;50.858;6.572;2024-01-30T11:46:58;18.57;;;8.30;;
4084;SDS011;2057;50.858;6.572;2024-01-30T11:49:28;18.67;;;7.73;;
4084;SDS011;2057;50.858;6.572;2024-01-30T11:51:56;16.43;;;8.33;;
4084;SDS011;2057;50.858;6.572;2024-01-30T11:54:24;17.27;;;7.60;;
4084;SDS011;2057;50.858;6.572;2024-01-30T11:56:49;17.00;;;6.83;;
4084;SDS011;2057;50.858;6.572;2024-01-30T11:59:15;14.77;;;6.63;;
4084;SDS011;2057;50.858;6.572;2024-01-30T12:01:40;9.77;;;6.40;;
4084;SDS011;2057;50.858;6.572;2024-01-30T12:04:10;23.50;;;8.60;;
4084;SDS011;2057;50.858;6.572;2024-01-30T12:06:38;20.13;;;6.33;;
4084;SDS011;2057;50.858;6.572;2024-01-30T12:09:04;14.70;;;7.63;;
4084;SDS011;2057;50.858;6.572;2024-01-30T12:11:33;15.37;;;7.60;;
4084;SDS011;2057;50.858;6.572;2024-01-30T12:14:08;16.17;;;6.83;;
4084;SDS011;2057;50.858;6.572;2024-01-30T12:16:36;13.80;;;7.37;;
4084;SDS011;2057;50.858;6.572;2024-01-30T12:19:02;20.77;;;7.27;;
4084;SDS011;2057;50.858;6.572;2024-01-30T12:21:27;24.73;;;6.70;;
4084;SDS011;2057;50.858;6.572;2024-01-30T12:23:56;15.37;;;7.07;;
4084;SDS011;2057;50.858;6.572;2024-01-30T12:26:24;21.77;;;7.50;;
4084;SDS011;2057;50.858;6.572;2024-01-30T12:28:55;14.90;;;6.83;;
4084;SDS011;2057;50.858;6.572;2024-01-30T12:31:26;16.43;;;7.23;;
4084;SDS011;2057;50.858;6.572;2024-01-30T12:34:13;19.40;;;7.87;;
4084;SDS011;2057;50.858;6.572;2024-01-30T12:36:39;10.97;;;6.50;;
4084;SDS011;2057;50.858;6.572;2024-01-30T12:39:10;15.10;;;6.20;;
4084;SDS011;2057;50.858;6.572;2024-01-30T12:41:36;21.77;;;7.23;;
4084;SDS011;2057;50.858;6.572;2024-01-30T12:44:04;19.30;;;9.43;;
4084;SDS011;2057;50.858;6.572;2024-01-30T12:46:32;25.07;;;10.27;;
4084;SDS011;2057;50.858;6.572;2024-01-30T12:49:03;17.87;;;9.73;;
4084;SDS011;2057;50.858;6.572;2024-01-30T12:51:40;18.50;;;7.20;;
4084;SDS011;2057;50.858;6.572;2024-01-30T12:54:05;16.70;;;7.00;;
4084;SDS011;2057;50.858;6.572;2024-01-30T12:56:33;18.77;;;7.93;;
4084;SDS011;2057;50.858;6.572;2024-01-30T12:58:58;14.57;;;6.60;;
4084;SDS011;2057;50.858;6.572;2024-01-30T13:01:24;12.40;;;5.93;;
4084;SDS011;2057;50.858;6.572;2024-01-30T13:03:52;12.73;;;5.60;;
4084;SDS011;2057;50.858;6.572;2024-01-30T13:06:17;11.70;;;6.47;;
4084;SDS011;2057;50.858;6.572;2024-01-30T13:08:48;8.53;;;6.23;;
4084;SDS011;2057;50.858;6.572;2024-01-30T13:11:14;9.43;;;5.90;;
4084;SDS011;2057;50.858;6.572;2024-01-30T13:13:46;20.00;;;6.77;;
4084;SDS011;2057;50.858;6.572;2024-01-30T13:16:14;9.57;;;5.63;;
4084;SDS011;2057;50.858;6.572;2024-01-30T13:18:39;23.77;;;6.77;;
4084;SDS011;2057;50.858;6.572;2024-01-30T13:21:08;12.27;;;6.20;;
4084;SDS011;2057;50.858;6.572;2024-01-30T13:23:36;12.33;;;7.07;;
4084;SDS011;2057;50.858;6.572;2024-01-30T13:26:01;14.77;;;6.90;;
4084;SDS011;2057;50.858;6.572;2024-01-30T13:28:27;14.30;;;6.87;;
4084;SDS011;2057;50.858;6.572;2024-01-30T13:30:52;13.10;;;5.93;;
4084;SDS011;2057;50.858;6.572;2024-01-30T13:33:18;18.10;;;6.60;;
4084;SDS011;2057;50.858;6.572;2024-01-30T13:35:43;13.70;;;6.60;;
4084;SDS011;2057;50.858;6.572;2024-01-30T13:38:08;18.50;;;6.37;;
4084;SDS011;2057;50.858;6.572;2024-01-30T13:40:39;12.57;;;6.30;;
4084;SDS011;2057;50.858;6.572;2024-01-30T13:45:41;17.70;;;7.53;;
4084;SDS011;2057;50.858;6.572;2024-01-30T13:55:53;12.47;;;8.03;;
4084;SDS011;2057;50.858;6.572;2024-01-30T13:58:20;14.80;;;7.50;;
4084;SDS011;2057;50.858;6.572;2024-01-30T14:11:04;13.13;;;8.47;;
4084;SDS011;2057;50.858;6.572;2024-01-30T14:34:01;19.70;;;8.47;;
4084;SDS011;2057;50.858;6.572;2024-01-30T14:46:47;19.90;;;8.93;;
4084;SDS011;2057;50.858;6.572;2024-01-30T16:01:37;21.90;;;5.87;;
4084;SDS011;2057;50.858;6.572;2024-01-30T16:04:02;17.17;;;5.60;;
4084;SDS011;2057;50.858;6.572;2024-01-30T16:06:28;9.80;;;4.90;;
4084;SDS011;2057;50.858;6.572;2024-01-30T16:08:53;17.07;;;4.67;;
4084;SDS011;2057;50.858;6.572;2024-01-30T16:11:20;11.70;;;4.60;;
4084;SDS011;2057;50.858;6.572;2024-01-30T16:13:46;12.33;;;5.37;;
4084;SDS011;2057;50.858;6.572;2024-01-30T16:16:18;9.30;;;4.03;;
4084;SDS011;2057;50.858;6.572;2024-01-30T16:18:49;12.40;;;4.90;;
4084;SDS011;2057;50.858;6.572;2024-01-30T16:21:14;16.30;;;4.40;;
4084;SDS011;2057;50.858;6.572;2024-01-30T16:23:41;6.83;;;3.37;;
4084;SDS011;2057;50.858;6.572;2024-01-30T16:26:06;7.10;;;3.63;;
4084;SDS011;2057;50.858;6.572;2024-01-30T16:28:32;13.50;;;3.90;;
4084;SDS011;2057;50.858;6.572;2024-01-30T16:31:02;8.23;;;3.93;;
4084;SDS011;2057;50.858;6.572;2024-01-30T16:33:28;24.53;;;4.60;;
4084;SDS011;2057;50.858;6.572;2024-01-30T16:35:56;7.30;;;3.53;;
4084;SDS011;2057;50.858;6.572;2024-01-30T16:38:22;6.80;;;3.83;;
4084;SDS011;2057;50.858;6.572;2024-01-30T16:40:47;8.70;;;3.73;;
4084;SDS011;2057;50.858;6.572;2024-01-30T16:43:16;9.47;;;3.37;;
4084;SDS011;2057;50.858;6.572;2024-01-30T16:45:44;7.50;;;3.27;;
4084;SDS011;2057;50.858;6.572;2024-01-30T16:48:13;9.37;;;2.60;;
4084;SDS011;2057;50.858;6.572;2024-01-30T16:50:41;13.63;;;3.07;;
4084;SDS011;2057;50.858;6.572;2024-01-30T16:53:10;9.83;;;2.60;;
4084;SDS011;2057;50.858;6.572;2024-01-30T16:55:35;4.40;;;2.37;;
4084;SDS011;2057;50.858;6.572;2024-01-30T16:58:00;4.00;;;2.50;;
4084;SDS011;2057;50.858;6.572;2024-01-30T17:00:26;7.27;;;2.90;;
4084;SDS011;2057;50.858;6.572;2024-01-30T17:02:51;6.27;;;2.70;;
4084;SDS011;2057;50.858;6.572;2024-01-30T17:05:19;4.80;;;2.30;;
4084;SDS011;2057;50.858;6.572;2024-01-30T17:07:44;9.13;;;4.83;;
4084;SDS011;2057;50.858;6.572;2024-01-30T17:10:09;7.10;;;2.90;;
4084;SDS011;2057;50.858;6.572;2024-01-30T17:12:35;3.70;;;2.60;;
4084;SDS011;2057;50.858;6.572;2024-01-30T17:15:03;7.13;;;2.70;;
4084;SDS011;2057;50.858;6.572;2024-01-30T17:17:28;5.40;;;2.23;;
4084;SDS011;2057;50.858;6.572;2024-01-30T17:19:53;7.60;;;2.67;;
4084;SDS011;2057;50.858;6.572;2024-01-30T17:22:19;2.27;;;1.57;;
4084;SDS011;2057;50.858;6.572;2024-01-30T17:24:47;4.60;;;2.30;;
4084;SDS011;2057;50.858;6.572;2024-01-30T17:27:16;3.70;;;2.43;;
4084;SDS011;2057;50.858;6.572;2024-01-30T17:29:43;5.53;;;2.27;;
4084;SDS011;2057;50.858;6.572;2024-01-30T17:32:09;5.47;;;2.40;;
4084;SDS011;2057;50.858;6.572;2024-01-30T17:34:36;5.50;;;2.23;;
4084;SDS011;2057;50.858;6.572;2024-01-30T17:42:12;26.87;;;3.03;;
4084;SDS011;2057;50.858;6.572;2024-01-30T17:47:12;5.87;;;2.83;;
4084;SDS011;2057;50.858;6.572;2024-01-30T17:49:38;5.63;;;2.23;;
4084;SDS011;2057;50.858;6.572;2024-01-30T17:54:38;23.10;;;9.63;;
4084;SDS011;2057;50.858;6.572;2024-01-30T17:57:06;23.50;;;11.67;;
4084;SDS011;2057;50.858;6.572;2024-01-30T17:59:31;20.00;;;8.67;;
4084;SDS011;2057;50.858;6.572;2024-01-30T18:01:57;10.23;;;6.27;;
4084;SDS011;2057;50.858;6.572;2024-01-30T18:04:22;18.47;;;9.27;;
4084;SDS011;2057;50.858;6.572;2024-01-30T18:06:53;16.10;;;7.60;;
4084;SDS011;2057;50.858;6.572;2024-01-30T18:09:23;8.07;;;3.50;;
4084;SDS011;2057;50.858;6.572;2024-01-30T18:19:44;14.53;;;5.87;;
4084;SDS011;2057;50.858;6.572;2024-01-30T18:22:10;12.27;;;3.57;;
4084;SDS011;2057;50.858;6.572;2024-01-30T18:24:35;29.53;;;8.57;;
4084;SDS011;2057;50.858;6.572;2024-01-30T18:27:06;16.93;;;4.67;;
4084;SDS011;2057;50.858;6.572;2024-01-30T18:29:32;12.30;;;4.47;;
4084;SDS011;2057;50.858;6.572;2024-01-30T18:34:30;22.73;;;9.13;;
4084;SDS011;2057;50.858;6.572;2024-01-30T18:36:56;21.60;;;6.50;;
4084;SDS011;2057;50.858;6.572;2024-01-30T18:39:27;11.00;;;2.43;;
4084;SDS011;2057;50.858;6.572;2024-01-30T18:41:53;6.33;;;2.57;;
4084;SDS011;2057;50.858;6.572;2024-01-30T18:44:18;5.17;;;2.60;;
4084;SDS011;2057;50.858;6.572;2024-01-30T18:46:44;12.70;;;2.47;;
4084;SDS011;2057;50.858;6.572;2024-01-30T18:49:09;11.20;;;3.27;;
4084;SDS011;2057;50.858;6.572;2024-01-30T18:51:34;13.50;;;2.67;;
4084;SDS011;2057;50.858;6.572;2024-01-30T18:54:00;10.80;;;3.03;;
4084;SDS011;2057;50.858;6.572;2024-01-30T18:56:28;10.10;;;3.80;;
4084;SDS011;2057;50.858;6.572;2024-01-30T18:58:53;8.30;;;2.73;;
4084;SDS011;2057;50.858;6.572;2024-01-30T19:01:19;7.30;;;2.23;;
4084;SDS011;2057;50.858;6.572;2024-01-30T19:03:47;10.03;;;2.80;;
4084;SDS011;2057;50.858;6.572;2024-01-30T19:06:17;5.63;;;2.40;;
4084;SDS011;2057;50.858;6.572;2024-01-30T19:08:43;5.33;;;2.37;;
4084;SDS011;2057;50.858;6.572;2024-01-30T19:11:20;5.20;;;1.90;;
4084;SDS011;2057;50.858;6.572;2024-01-30T19:13:46;7.23;;;2.80;;
4084;SDS011;2057;50.858;6.572;2024-01-30T19:16:14;7.70;;;2.30;;
4084;SDS011;2057;50.858;6.572;2024-01-30T19:18:39;5.10;;;2.43;;
4084;SDS011;2057;50.858;6.572;2024-01-30T19:21:04;7.00;;;2.57;;
4084;SDS011;2057;50.858;6.572;2024-01-30T19:23:30;5.20;;;2.00;;
4084;SDS011;2057;50.858;6.572;2024-01-30T19:25:57;13.27;;;3.60;;
4084;SDS011;2057;50.858;6.572;2024-01-30T19:28:23;5.43;;;2.00;;
4084;SDS011;2057;50.858;6.572;2024-01-30T19:30:48;14.33;;;2.20;;
4084;SDS011;2057;50.858;6.572;2024-01-30T19:33:14;3.33;;;2.00;;
4084;SDS011;2057;50.858;6.572;2024-01-30T19:38:16;19.83;;;4.27;;
4084;SDS011;2057;50.858;6.572;2024-01-30T19:40:44;7.73;;;2.33;;
4084;SDS011;2057;50.858;6.572;2024-01-30T19:43:09;5.83;;;1.97;;
4084;SDS011;2057;50.858;6.572;2024-01-30T20:08:51;12.83;;;2.43;;
4084;SDS011;2057;50.858;6.572;2024-01-30T20:21:37;3.73;;;2.80;;
4084;SDS011;2057;50.858;6.572;2024-01-30T20:26:38;6.70;;;2.90;;
4084;SDS011;2057;50.858;6.572;2024-01-30T20:29:03;9.37;;;3.50;;
4084;SDS011;2057;50.858;6.572;2024-01-30T20:31:29;4.93;;;2.13;;
4084;SDS011;2057;50.858;6.572;2024-01-30T20:33:56;7.83;;;2.63;;
4084;SDS011;2057;50.858;6.572;2024-01-30T20:36:24;3.37;;;2.20;;
4084;SDS011;2057;50.858;6.572;2024-01-30T20:38:54;9.70;;;2.80;;
4084;SDS011;2057;50.858;6.572;2024-01-30T21:37:06;12.67;;;3.70;;
4084;SDS011;2057;50.858;6.572;2024-01-30T21:39:34;15.73;;;3.47;;
4084;SDS011;2057;50.858;6.572;2024-01-30T21:54:56;10.90;;;4.93;;
4084;SDS011;2057;50.858;6.572;2024-01-30T21:57:21;9.73;;;4.10;;
4084;SDS011;2057;50.858;6.572;2024-01-30T21:59:51;6.60;;;4.70;;
4084;SDS011;2057;50.858;6.572;2024-01-30T22:02:19;8.50;;;4.50;;
4084;SDS011;2057;50.858;6.572;2024-01-30T22:04:47;6.53;;;4.37;;
4084;SDS011;2057;50.858;6.572;2024-01-30T22:07:13;6.80;;;4.20;;
4084;SDS011;2057;50.858;6.572;2024-01-30T22:09:38;13.07;;;5.20;;
4084;SDS011;2057;50.858;6.572;2024-01-30T22:12:05;8.57;;;4.83;;
4084;SDS011;2057;50.858;6.572;2024-01-30T22:14:32;10.40;;;4.70;;
4084;SDS011;2057;50.858;6.572;2024-01-30T22:16:58;5.00;;;4.30;;